sensor_id;sensor_type;location;lat;lon;timestamp;temperature;humidity
26745;DHT22;14342;50.960;13.880;2023-07-02T00:00:02;20.50;99.90
26745;DHT22;14342;50.960;13.880;2023-07-02T00:01:05;20.40;99.90
26745;DHT22;14342;50.960;13.880;2023-07-02T00:02:06;20.50;99.90
26745;DHT22;14342;50.960;13.880;2023-07-02T00:03:07;20.60;99.90
26745;DHT22;14342;50.960;13.880;2023-07-02T00:04:10;20.50;99.90
26745;DHT22;14342;50.960;13.880;2023-07-02T00:05:13;20.50;99.90
26745;DHT22;14342;50.960;13.880;2023-07-02T00:06:15;20.40;99.90
26745;DHT22;14342;50.960;13.880;2023-07-02T00:07:17;20.50;99.90
26745;DHT22;14342;50.960;13.880;2023-07-02T00:08:21;20.50;99.90
26745;DHT22;14342;50.960;13.880;2023-07-02T00:09:21;20.50;99.90
26745;DHT22;14342;50.960;13.880;2023-07-02T00:10:23;20.50;99.90
26745;DHT22;14342;50.960;13.880;2023-07-02T00:11:24;20.40;99.90
26745;DHT22;14342;50.960;13.880;2023-07-02T00:12:25;20.40;99.90
26745;DHT22;14342;50.960;13.880;2023-07-02T00:13:26;20.50;99.90
26745;DHT22;14342;50.960;13.880;2023-07-02T00:14:27;20.50;99.90
26745;DHT22;14342;50.960;13.880;2023-07-02T00:15:28;20.40;99.90
26745;DHT22;14342;50.960;13.880;2023-07-02T00:16:29;20.40;99.90
26745;DHT22;14342;50.960;13.880;2023-07-02T00:17:30;20.40;99.90
26745;DHT22;14342;50.960;13.880;2023-07-02T00:18:31;20.40;99.90
26745;DHT22;14342;50.960;13.880;2023-07-02T00:19:34;20.40;99.90
26745;DHT22;14342;50.960;13.880;2023-07-02T00:20:35;20.50;99.90
26745;DHT22;14342;50.960;13.880;2023-07-02T00:21:38;20.50;99.90
26745;DHT22;14342;50.960;13.880;2023-07-02T00:22:40;20.60;99.90
26745;DHT22;14342;50.960;13.880;2023-07-02T00:23:47;20.70;99.90
26745;DHT22;14342;50.960;13.880;2023-07-02T00:24:49;20.70;99.90
26745;DHT22;14342;50.960;13.880;2023-07-02T00:25:51;20.80;99.90
26745;DHT22;14342;50.960;13.880;2023-07-02T00:26:52;20.80;99.90
26745;DHT22;14342;50.960;13.880;2023-07-02T00:27:53;20.80;99.90
26745;DHT22;14342;50.960;13.880;2023-07-02T00:28:55;20.80;99.90
26745;DHT22;14342;50.960;13.880;2023-07-02T00:29:55;20.90;99.90
26745;DHT22;14342;50.960;13.880;2023-07-02T00:30:57;21.00;99.90
26745;DHT22;14342;50.960;13.880;2023-07-02T00:31:58;20.80;99.90
26745;DHT22;14342;50.960;13.880;2023-07-02T00:32:59;20.80;99.90
26745;DHT22;14342;50.960;13.880;2023-07-02T00:34:00;20.80;99.90
26745;DHT22;14342;50.960;13.880;2023-07-02T00:35:02;20.80;99.90
26745;DHT22;14342;50.960;13.880;2023-07-02T00:36:03;20.90;99.90
26745;DHT22;14342;50.960;13.880;2023-07-02T00:37:04;20.90;99.90
26745;DHT22;14342;50.960;13.880;2023-07-02T00:38:05;20.90;99.90
26745;DHT22;14342;50.960;13.880;2023-07-02T00:39:08;20.90;99.90
26745;DHT22;14342;50.960;13.880;2023-07-02T00:40:09;20.90;99.90
26745;DHT22;14342;50.960;13.880;2023-07-02T00:41:11;20.60;99.90
26745;DHT22;14342;50.960;13.880;2023-07-02T00:42:11;20.70;99.90
26745;DHT22;14342;50.960;13.880;2023-07-02T00:43:13;20.60;99.90
26745;DHT22;14342;50.960;13.880;2023-07-02T00:44:13;20.70;99.90
26745;DHT22;14342;50.960;13.880;2023-07-02T00:45:15;20.60;99.90
26745;DHT22;14342;50.960;13.880;2023-07-02T00:46:16;20.60;99.90
26745;DHT22;14342;50.960;13.880;2023-07-02T00:47:20;20.60;99.90
26745;DHT22;14342;50.960;13.880;2023-07-02T00:48:21;20.60;99.90
26745;DHT22;14342;50.960;13.880;2023-07-02T00:49:22;20.60;99.90
26745;DHT22;14342;50.960;13.880;2023-07-02T00:50:23;20.50;99.90
26745;DHT22;14342;50.960;13.880;2023-07-02T00:51:26;20.40;99.90
26745;DHT22;14342;50.960;13.880;2023-07-02T00:52:27;20.40;99.90
26745;DHT22;14342;50.960;13.880;2023-07-02T00:53:29;20.40;99.90
26745;DHT22;14342;50.960;13.880;2023-07-02T00:54:31;20.50;99.90
26745;DHT22;14342;50.960;13.880;2023-07-02T00:55:32;20.50;99.90
26745;DHT22;14342;50.960;13.880;2023-07-02T00:56:33;20.50;99.90
26745;DHT22;14342;50.960;13.880;2023-07-02T00:57:34;20.40;99.90
26745;DHT22;14342;50.960;13.880;2023-07-02T00:58:36;20.40;99.90
26745;DHT22;14342;50.960;13.880;2023-07-02T00:59:39;20.50;99.90
26745;DHT22;14342;50.960;13.880;2023-07-02T01:00:39;20.40;99.90
26745;DHT22;14342;50.960;13.880;2023-07-02T01:01:42;20.60;99.90
26745;DHT22;14342;50.960;13.880;2023-07-02T01:02:43;20.50;99.90
26745;DHT22;14342;50.960;13.880;2023-07-02T01:03:58;20.60;99.90
26745;DHT22;14342;50.960;13.880;2023-07-02T01:04:59;20.60;99.90
26745;DHT22;14342;50.960;13.880;2023-07-02T01:06:01;20.60;99.90
26745;DHT22;14342;50.960;13.880;2023-07-02T01:07:03;20.50;99.90
26745;DHT22;14342;50.960;13.880;2023-07-02T01:08:09;20.50;99.90
26745;DHT22;14342;50.960;13.880;2023-07-02T01:09:12;20.50;99.90
26745;DHT22;14342;50.960;13.880;2023-07-02T01:10:15;20.50;99.90
26745;DHT22;14342;50.960;13.880;2023-07-02T01:11:15;20.60;99.90
26745;DHT22;14342;50.960;13.880;2023-07-02T01:12:17;20.50;99.90
26745;DHT22;14342;50.960;13.880;2023-07-02T01:13:19;20.50;99.90
26745;DHT22;14342;50.960;13.880;2023-07-02T01:14:22;20.60;99.90
26745;DHT22;14342;50.960;13.880;2023-07-02T01:15:24;20.40;99.90
26745;DHT22;14342;50.960;13.880;2023-07-02T01:16:26;20.30;99.90
26745;DHT22;14342;50.960;13.880;2023-07-02T01:17:27;20.10;99.90
26745;DHT22;14342;50.960;13.880;2023-07-02T01:18:28;20.20;99.90
26745;DHT22;14342;50.960;13.880;2023-07-02T01:19:35;20.20;99.90
26745;DHT22;14342;50.960;13.880;2023-07-02T01:20:40;20.20;99.90
26745;DHT22;14342;50.960;13.880;2023-07-02T01:21:41;20.20;99.90
26745;DHT22;14342;50.960;13.880;2023-07-02T01:22:43;20.50;99.90
26745;DHT22;14342;50.960;13.880;2023-07-02T01:23:43;20.20;99.90
26745;DHT22;14342;50.960;13.880;2023-07-02T01:24:45;20.20;99.90
26745;DHT22;14342;50.960;13.880;2023-07-02T01:25:47;20.30;99.90
26745;DHT22;14342;50.960;13.880;2023-07-02T01:26:48;20.30;99.90
26745;DHT22;14342;50.960;13.880;2023-07-02T01:27:49;20.40;99.90
26745;DHT22;14342;50.960;13.880;2023-07-02T01:28:51;20.50;99.90
26745;DHT22;14342;50.960;13.880;2023-07-02T01:29:51;20.50;99.90
26745;DHT22;14342;50.960;13.880;2023-07-02T01:30:53;20.40;99.90
26745;DHT22;14342;50.960;13.880;2023-07-02T01:31:54;20.20;99.90
26745;DHT22;14342;50.960;13.880;2023-07-02T01:32:55;20.10;99.90
26745;DHT22;14342;50.960;13.880;2023-07-02T01:33:56;20.10;99.90
26745;DHT22;14342;50.960;13.880;2023-07-02T01:34:58;20.10;99.90
26745;DHT22;14342;50.960;13.880;2023-07-02T01:36:01;20.10;99.90
26745;DHT22;14342;50.960;13.880;2023-07-02T01:37:03;20.20;99.90
26745;DHT22;14342;50.960;13.880;2023-07-02T01:38:03;20.10;99.90
26745;DHT22;14342;50.960;13.880;2023-07-02T01:39:05;20.10;99.90
26745;DHT22;14342;50.960;13.880;2023-07-02T01:40:06;19.90;99.90
26745;DHT22;14342;50.960;13.880;2023-07-02T01:41:06;20.10;99.90
26745;DHT22;14342;50.960;13.880;2023-07-02T01:42:09;20.10;99.90
26745;DHT22;14342;50.960;13.880;2023-07-02T01:43:10;20.00;99.90
26745;DHT22;14342;50.960;13.880;2023-07-02T01:44:11;20.00;99.90
26745;DHT22;14342;50.960;13.880;2023-07-02T01:45:12;20.00;99.90
26745;DHT22;14342;50.960;13.880;2023-07-02T01:46:13;20.10;99.90
26745;DHT22;14342;50.960;13.880;2023-07-02T01:47:14;20.10;99.90
26745;DHT22;14342;50.960;13.880;2023-07-02T01:48:16;19.90;99.90
26745;DHT22;14342;50.960;13.880;2023-07-02T01:49:16;19.80;99.90
26745;DHT22;14342;50.960;13.880;2023-07-02T01:50:20;19.90;99.90
26745;DHT22;14342;50.960;13.880;2023-07-02T01:51:21;19.90;99.90
26745;DHT22;14342;50.960;13.880;2023-07-02T01:52:22;19.90;99.90
26745;DHT22;14342;50.960;13.880;2023-07-02T01:53:23;19.90;99.90
26745;DHT22;14342;50.960;13.880;2023-07-02T01:54:24;20.00;99.90
26745;DHT22;14342;50.960;13.880;2023-07-02T01:55:27;20.10;99.90
26745;DHT22;14342;50.960;13.880;2023-07-02T01:56:28;20.00;99.90
26745;DHT22;14342;50.960;13.880;2023-07-02T01:57:29;19.90;99.90
26745;DHT22;14342;50.960;13.880;2023-07-02T01:58:31;19.90;99.90
26745;DHT22;14342;50.960;13.880;2023-07-02T01:59:31;20.00;99.90
26745;DHT22;14342;50.960;13.880;2023-07-02T02:00:33;19.90;99.90
26745;DHT22;14342;50.960;13.880;2023-07-02T02:01:33;20.00;99.90
26745;DHT22;14342;50.960;13.880;2023-07-02T02:02:35;20.10;99.90
26745;DHT22;14342;50.960;13.880;2023-07-02T02:03:35;20.20;99.90
26745;DHT22;14342;50.960;13.880;2023-07-02T02:04:37;20.20;99.90
26745;DHT22;14342;50.960;13.880;2023-07-02T02:05:39;20.10;99.90
26745;DHT22;14342;50.960;13.880;2023-07-02T02:06:40;20.10;99.90
26745;DHT22;14342;50.960;13.880;2023-07-02T02:07:41;20.10;99.90
26745;DHT22;14342;50.960;13.880;2023-07-02T02:08:43;20.00;99.90
26745;DHT22;14342;50.960;13.880;2023-07-02T02:09:43;19.80;99.90
26745;DHT22;14342;50.960;13.880;2023-07-02T02:10:45;19.90;99.90
26745;DHT22;14342;50.960;13.880;2023-07-02T02:11:47;19.90;99.90
26745;DHT22;14342;50.960;13.880;2023-07-02T02:12:50;19.90;99.90
26745;DHT22;14342;50.960;13.880;2023-07-02T02:13:50;19.90;99.90
26745;DHT22;14342;50.960;13.880;2023-07-02T02:14:52;19.80;99.90
26745;DHT22;14342;50.960;13.880;2023-07-02T02:15:53;19.80;99.90
26745;DHT22;14342;50.960;13.880;2023-07-02T02:16:55;19.80;99.90
26745;DHT22;14342;50.960;13.880;2023-07-02T02:17:55;19.70;99.90
26745;DHT22;14342;50.960;13.880;2023-07-02T02:18:57;19.70;99.90
26745;DHT22;14342;50.960;13.880;2023-07-02T02:19:57;19.70;99.90
26745;DHT22;14342;50.960;13.880;2023-07-02T02:21:00;19.70;99.90
26745;DHT22;14342;50.960;13.880;2023-07-02T02:22:01;19.70;99.90
26745;DHT22;14342;50.960;13.880;2023-07-02T02:23:02;19.80;99.90
26745;DHT22;14342;50.960;13.880;2023-07-02T02:24:03;19.80;99.90
26745;DHT22;14342;50.960;13.880;2023-07-02T02:25:06;19.80;99.90
26745;DHT22;14342;50.960;13.880;2023-07-02T02:26:07;19.80;99.90
26745;DHT22;14342;50.960;13.880;2023-07-02T02:27:09;19.90;99.90
26745;DHT22;14342;50.960;13.880;2023-07-02T02:28:09;19.90;99.90
26745;DHT22;14342;50.960;13.880;2023-07-02T02:29:11;19.90;99.90
26745;DHT22;14342;50.960;13.880;2023-07-02T02:30:11;20.00;99.90
26745;DHT22;14342;50.960;13.880;2023-07-02T02:31:13;19.90;99.90
26745;DHT22;14342;50.960;13.880;2023-07-02T02:32:13;19.80;99.90
26745;DHT22;14342;50.960;13.880;2023-07-02T02:33:20;19.70;99.90
26745;DHT22;14342;50.960;13.880;2023-07-02T02:34:21;19.80;99.90
26745;DHT22;14342;50.960;13.880;2023-07-02T02:35:22;19.70;99.90
26745;DHT22;14342;50.960;13.880;2023-07-02T02:36:24;19.80;99.90
26745;DHT22;14342;50.960;13.880;2023-07-02T02:37:26;19.70;99.90
26745;DHT22;14342;50.960;13.880;2023-07-02T02:38:26;19.70;99.90
26745;DHT22;14342;50.960;13.880;2023-07-02T02:39:28;19.80;99.90
26745;DHT22;14342;50.960;13.880;2023-07-02T02:40:28;19.70;99.90
26745;DHT22;14342;50.960;13.880;2023-07-02T02:41:30;19.80;99.90
26745;DHT22;14342;50.960;13.880;2023-07-02T02:42:31;19.60;99.90
26745;DHT22;14342;50.960;13.880;2023-07-02T02:43:32;19.80;99.90
26745;DHT22;14342;50.960;13.880;2023-07-02T02:44:33;19.50;99.90
26745;DHT22;14342;50.960;13.880;2023-07-02T02:45:34;19.50;99.90
26745;DHT22;14342;50.960;13.880;2023-07-02T02:46:35;19.50;99.90
26745;DHT22;14342;50.960;13.880;2023-07-02T02:47:36;19.50;99.90
26745;DHT22;14342;50.960;13.880;2023-07-02T02:48:37;19.50;99.90
26745;DHT22;14342;50.960;13.880;2023-07-02T02:49:38;19.50;99.90
26745;DHT22;14342;50.960;13.880;2023-07-02T02:50:39;19.40;99.90
26745;DHT22;14342;50.960;13.880;2023-07-02T02:51:44;19.50;99.90
26745;DHT22;14342;50.960;13.880;2023-07-02T02:52:45;19.50;99.90
26745;DHT22;14342;50.960;13.880;2023-07-02T02:53:46;19.60;99.90
26745;DHT22;14342;50.960;13.880;2023-07-02T02:54:47;19.60;99.90
26745;DHT22;14342;50.960;13.880;2023-07-02T02:55:48;19.70;99.90
26745;DHT22;14342;50.960;13.880;2023-07-02T02:56:49;19.70;99.90
26745;DHT22;14342;50.960;13.880;2023-07-02T02:57:50;19.70;99.90
26745;DHT22;14342;50.960;13.880;2023-07-02T02:58:51;19.80;99.90
26745;DHT22;14342;50.960;13.880;2023-07-02T02:59:54;19.70;99.90
26745;DHT22;14342;50.960;13.880;2023-07-02T03:00:54;19.70;99.90
26745;DHT22;14342;50.960;13.880;2023-07-02T03:01:56;19.80;99.90
26745;DHT22;14342;50.960;13.880;2023-07-02T03:02:57;19.80;99.90
26745;DHT22;14342;50.960;13.880;2023-07-02T03:03:59;19.80;99.90
26745;DHT22;14342;50.960;13.880;2023-07-02T03:04:59;19.90;99.90
26745;DHT22;14342;50.960;13.880;2023-07-02T03:06:02;19.70;99.90
26745;DHT22;14342;50.960;13.880;2023-07-02T03:07:04;19.60;99.90
26745;DHT22;14342;50.960;13.880;2023-07-02T03:08:06;19.50;99.90
26745;DHT22;14342;50.960;13.880;2023-07-02T03:09:06;19.60;99.90
26745;DHT22;14342;50.960;13.880;2023-07-02T03:10:08;19.50;99.90
26745;DHT22;14342;50.960;13.880;2023-07-02T03:11:09;19.60;99.90
26745;DHT22;14342;50.960;13.880;2023-07-02T03:12:10;19.60;99.90
26745;DHT22;14342;50.960;13.880;2023-07-02T03:13:11;19.60;99.90
26745;DHT22;14342;50.960;13.880;2023-07-02T03:14:12;19.60;99.90
26745;DHT22;14342;50.960;13.880;2023-07-02T03:15:13;19.60;99.90
26745;DHT22;14342;50.960;13.880;2023-07-02T03:16:14;19.60;99.90
26745;DHT22;14342;50.960;13.880;2023-07-02T03:17:15;19.50;99.90
26745;DHT22;14342;50.960;13.880;2023-07-02T03:18:16;19.50;99.90
26745;DHT22;14342;50.960;13.880;2023-07-02T03:19:17;19.50;99.90
26745;DHT22;14342;50.960;13.880;2023-07-02T03:20:18;19.50;99.90
26745;DHT22;14342;50.960;13.880;2023-07-02T03:21:19;19.60;99.90
26745;DHT22;14342;50.960;13.880;2023-07-02T03:22:22;19.70;99.90
26745;DHT22;14342;50.960;13.880;2023-07-02T03:23:22;19.60;99.90
26745;DHT22;14342;50.960;13.880;2023-07-02T03:24:24;19.70;99.90
26745;DHT22;14342;50.960;13.880;2023-07-02T03:25:24;19.70;99.90
26745;DHT22;14342;50.960;13.880;2023-07-02T03:26:26;19.80;99.90
26745;DHT22;14342;50.960;13.880;2023-07-02T03:27:26;19.70;99.90
26745;DHT22;14342;50.960;13.880;2023-07-02T03:28:28;19.80;99.90
26745;DHT22;14342;50.960;13.880;2023-07-02T03:29:28;19.80;99.90
26745;DHT22;14342;50.960;13.880;2023-07-02T03:30:30;19.80;99.90
26745;DHT22;14342;50.960;13.880;2023-07-02T03:31:31;19.80;99.90
26745;DHT22;14342;50.960;13.880;2023-07-02T03:32:32;19.90;99.90
26745;DHT22;14342;50.960;13.880;2023-07-02T03:33:33;20.00;99.90
26745;DHT22;14342;50.960;13.880;2023-07-02T03:34:34;20.00;99.90
26745;DHT22;14342;50.960;13.880;2023-07-02T03:35:35;19.90;99.90
26745;DHT22;14342;50.960;13.880;2023-07-02T03:36:36;19.90;99.90
26745;DHT22;14342;50.960;13.880;2023-07-02T03:37:39;20.00;99.90
26745;DHT22;14342;50.960;13.880;2023-07-02T03:38:42;19.90;99.90
26745;DHT22;14342;50.960;13.880;2023-07-02T03:39:43;20.00;99.90
26745;DHT22;14342;50.960;13.880;2023-07-02T03:40:44;20.00;99.90
26745;DHT22;14342;50.960;13.880;2023-07-02T03:41:45;19.80;99.90
26745;DHT22;14342;50.960;13.880;2023-07-02T03:42:46;19.60;99.90
26745;DHT22;14342;50.960;13.880;2023-07-02T03:43:47;19.70;99.90
26745;DHT22;14342;50.960;13.880;2023-07-02T03:44:48;19.70;99.90
26745;DHT22;14342;50.960;13.880;2023-07-02T03:45:49;19.60;99.90
26745;DHT22;14342;50.960;13.880;2023-07-02T03:46:50;19.60;99.90
26745;DHT22;14342;50.960;13.880;2023-07-02T03:47:51;19.70;99.90
26745;DHT22;14342;50.960;13.880;2023-07-02T03:48:52;19.60;99.90
26745;DHT22;14342;50.960;13.880;2023-07-02T03:49:54;19.60;99.90
26745;DHT22;14342;50.960;13.880;2023-07-02T03:50:54;19.60;99.90
26745;DHT22;14342;50.960;13.880;2023-07-02T03:51:56;19.60;99.90
26745;DHT22;14342;50.960;13.880;2023-07-02T03:52:58;19.60;99.90
26745;DHT22;14342;50.960;13.880;2023-07-02T03:53:59;19.60;99.90
26745;DHT22;14342;50.960;13.880;2023-07-02T03:55:00;19.60;99.90
26745;DHT22;14342;50.960;13.880;2023-07-02T03:56:02;19.60;99.90
26745;DHT22;14342;50.960;13.880;2023-07-02T03:57:02;19.60;99.90
26745;DHT22;14342;50.960;13.880;2023-07-02T03:58:04;19.60;99.90
26745;DHT22;14342;50.960;13.880;2023-07-02T03:59:05;19.30;99.90
26745;DHT22;14342;50.960;13.880;2023-07-02T04:00:07;19.50;99.90
26745;DHT22;14342;50.960;13.880;2023-07-02T04:01:08;19.60;99.90
26745;DHT22;14342;50.960;13.880;2023-07-02T04:02:09;19.60;99.90
26745;DHT22;14342;50.960;13.880;2023-07-02T04:03:10;19.60;99.90
26745;DHT22;14342;50.960;13.880;2023-07-02T04:04:11;19.60;99.90
26745;DHT22;14342;50.960;13.880;2023-07-02T04:05:12;19.60;99.90
26745;DHT22;14342;50.960;13.880;2023-07-02T04:06:13;19.50;99.90
26745;DHT22;14342;50.960;13.880;2023-07-02T04:07:14;19.50;99.90
26745;DHT22;14342;50.960;13.880;2023-07-02T04:08:17;19.80;99.90
26745;DHT22;14342;50.960;13.880;2023-07-02T04:09:18;19.50;99.90
26745;DHT22;14342;50.960;13.880;2023-07-02T04:10:20;19.60;99.90
26745;DHT22;14342;50.960;13.880;2023-07-02T04:11:20;19.60;99.90
26745;DHT22;14342;50.960;13.880;2023-07-02T04:12:22;19.80;99.90
26745;DHT22;14342;50.960;13.880;2023-07-02T04:13:22;19.80;99.90
26745;DHT22;14342;50.960;13.880;2023-07-02T04:14:23;19.90;99.90
26745;DHT22;14342;50.960;13.880;2023-07-02T04:15:24;20.00;99.90
26745;DHT22;14342;50.960;13.880;2023-07-02T04:16:26;20.10;99.90
26745;DHT22;14342;50.960;13.880;2023-07-02T04:17:28;20.10;99.90
26745;DHT22;14342;50.960;13.880;2023-07-02T04:18:28;20.20;99.90
26745;DHT22;14342;50.960;13.880;2023-07-02T04:19:30;20.50;99.90
26745;DHT22;14342;50.960;13.880;2023-07-02T04:20:30;20.30;99.90
26745;DHT22;14342;50.960;13.880;2023-07-02T04:21:32;20.20;99.90
26745;DHT22;14342;50.960;13.880;2023-07-02T04:22:32;20.30;99.90
26745;DHT22;14342;50.960;13.880;2023-07-02T04:23:35;20.20;99.90
26745;DHT22;14342;50.960;13.880;2023-07-02T04:24:36;20.30;99.90
26745;DHT22;14342;50.960;13.880;2023-07-02T04:25:37;20.30;99.90
26745;DHT22;14342;50.960;13.880;2023-07-02T04:26:38;20.20;99.90
26745;DHT22;14342;50.960;13.880;2023-07-02T04:27:43;20.20;99.90
26745;DHT22;14342;50.960;13.880;2023-07-02T04:28:43;20.30;99.90
26745;DHT22;14342;50.960;13.880;2023-07-02T04:29:45;20.30;99.90
26745;DHT22;14342;50.960;13.880;2023-07-02T04:30:46;20.30;99.90
26745;DHT22;14342;50.960;13.880;2023-07-02T04:31:50;20.30;99.90
26745;DHT22;14342;50.960;13.880;2023-07-02T04:32:50;20.30;99.90
26745;DHT22;14342;50.960;13.880;2023-07-02T04:33:52;20.40;99.90
26745;DHT22;14342;50.960;13.880;2023-07-02T04:34:52;20.40;99.90
26745;DHT22;14342;50.960;13.880;2023-07-02T04:35:54;20.50;99.90
26745;DHT22;14342;50.960;13.880;2023-07-02T04:36:54;20.80;99.90
26745;DHT22;14342;50.960;13.880;2023-07-02T04:37:56;20.50;99.90
26745;DHT22;14342;50.960;13.880;2023-07-02T04:38:59;20.50;99.90
26745;DHT22;14342;50.960;13.880;2023-07-02T04:40:00;20.50;99.90
26745;DHT22;14342;50.960;13.880;2023-07-02T04:41:01;20.30;99.90
26745;DHT22;14342;50.960;13.880;2023-07-02T04:42:05;20.10;99.90
26745;DHT22;14342;50.960;13.880;2023-07-02T04:43:06;19.80;99.90
26745;DHT22;14342;50.960;13.880;2023-07-02T04:44:07;19.70;99.90
26745;DHT22;14342;50.960;13.880;2023-07-02T04:45:08;19.60;99.90
26745;DHT22;14342;50.960;13.880;2023-07-02T04:46:10;19.60;99.90
26745;DHT22;14342;50.960;13.880;2023-07-02T04:47:12;19.60;99.90
26745;DHT22;14342;50.960;13.880;2023-07-02T04:48:13;19.40;99.90
26745;DHT22;14342;50.960;13.880;2023-07-02T04:49:14;19.20;99.90
26745;DHT22;14342;50.960;13.880;2023-07-02T04:50:16;19.20;99.90
26745;DHT22;14342;50.960;13.880;2023-07-02T04:51:16;19.20;99.90
26745;DHT22;14342;50.960;13.880;2023-07-02T04:52:18;19.00;99.90
26745;DHT22;14342;50.960;13.880;2023-07-02T04:53:18;19.10;99.90
26745;DHT22;14342;50.960;13.880;2023-07-02T04:54:21;19.10;99.90
26745;DHT22;14342;50.960;13.880;2023-07-02T04:55:22;19.00;99.90
26745;DHT22;14342;50.960;13.880;2023-07-02T04:56:24;19.10;99.90
26745;DHT22;14342;50.960;13.880;2023-07-02T04:57:24;19.00;99.90
26745;DHT22;14342;50.960;13.880;2023-07-02T04:58:26;19.00;99.90
26745;DHT22;14342;50.960;13.880;2023-07-02T04:59:26;19.20;99.90
26745;DHT22;14342;50.960;13.880;2023-07-02T05:00:28;19.00;99.90
26745;DHT22;14342;50.960;13.880;2023-07-02T05:01:29;19.10;99.90
26745;DHT22;14342;50.960;13.880;2023-07-02T05:02:30;19.10;99.90
26745;DHT22;14342;50.960;13.880;2023-07-02T05:03:31;19.10;99.90
26745;DHT22;14342;50.960;13.880;2023-07-02T05:04:32;19.10;99.90
26745;DHT22;14342;50.960;13.880;2023-07-02T05:05:33;19.10;99.90
26745;DHT22;14342;50.960;13.880;2023-07-02T05:06:34;19.10;99.90
26745;DHT22;14342;50.960;13.880;2023-07-02T05:07:35;19.10;99.90
26745;DHT22;14342;50.960;13.880;2023-07-02T05:08:36;19.20;99.90
26745;DHT22;14342;50.960;13.880;2023-07-02T05:09:38;19.20;99.90
26745;DHT22;14342;50.960;13.880;2023-07-02T05:10:40;19.30;99.90
26745;DHT22;14342;50.960;13.880;2023-07-02T05:11:40;19.30;99.90
26745;DHT22;14342;50.960;13.880;2023-07-02T05:12:42;19.40;99.90
26745;DHT22;14342;50.960;13.880;2023-07-02T05:13:42;19.40;99.90
26745;DHT22;14342;50.960;13.880;2023-07-02T05:14:44;19.40;99.90
26745;DHT22;14342;50.960;13.880;2023-07-02T05:15:45;19.40;99.90
26745;DHT22;14342;50.960;13.880;2023-07-02T05:16:46;19.40;99.90
26745;DHT22;14342;50.960;13.880;2023-07-02T05:17:47;19.40;99.90
26745;DHT22;14342;50.960;13.880;2023-07-02T05:18:49;19.40;99.90
26745;DHT22;14342;50.960;13.880;2023-07-02T05:19:49;19.50;99.90
26745;DHT22;14342;50.960;13.880;2023-07-02T05:20:51;19.50;99.90
26745;DHT22;14342;50.960;13.880;2023-07-02T05:21:51;19.40;99.90
26745;DHT22;14342;50.960;13.880;2023-07-02T05:22:53;19.40;99.90
26745;DHT22;14342;50.960;13.880;2023-07-02T05:23:53;19.40;99.90
26745;DHT22;14342;50.960;13.880;2023-07-02T05:24:56;19.40;99.90
26745;DHT22;14342;50.960;13.880;2023-07-02T05:25:57;19.40;99.90
26745;DHT22;14342;50.960;13.880;2023-07-02T05:26:58;19.40;99.90
26745;DHT22;14342;50.960;13.880;2023-07-02T05:27:59;19.40;99.90
26745;DHT22;14342;50.960;13.880;2023-07-02T05:29:00;19.40;99.90
26745;DHT22;14342;50.960;13.880;2023-07-02T05:30:01;19.40;99.90
26745;DHT22;14342;50.960;13.880;2023-07-02T05:31:03;19.50;99.90
26745;DHT22;14342;50.960;13.880;2023-07-02T05:32:03;19.50;99.90
26745;DHT22;14342;50.960;13.880;2023-07-02T05:33:05;19.60;99.90
26745;DHT22;14342;50.960;13.880;2023-07-02T05:34:05;19.50;99.90
26745;DHT22;14342;50.960;13.880;2023-07-02T05:35:07;19.40;99.90
26745;DHT22;14342;50.960;13.880;2023-07-02T05:36:08;19.30;99.90
26745;DHT22;14342;50.960;13.880;2023-07-02T05:37:09;19.10;99.90
26745;DHT22;14342;50.960;13.880;2023-07-02T05:38:10;19.10;99.90
26745;DHT22;14342;50.960;13.880;2023-07-02T05:39:11;19.20;99.90
26745;DHT22;14342;50.960;13.880;2023-07-02T05:40:13;19.20;99.90
26745;DHT22;14342;50.960;13.880;2023-07-02T05:41:17;19.40;99.90
26745;DHT22;14342;50.960;13.880;2023-07-02T05:42:18;19.20;99.90
26745;DHT22;14342;50.960;13.880;2023-07-02T05:43:19;19.20;99.90
26745;DHT22;14342;50.960;13.880;2023-07-02T05:44:20;19.00;99.90
26745;DHT22;14342;50.960;13.880;2023-07-02T05:45:21;19.00;99.90
26745;DHT22;14342;50.960;13.880;2023-07-02T05:46:23;19.10;99.90
26745;DHT22;14342;50.960;13.880;2023-07-02T05:47:25;19.10;99.90
26745;DHT22;14342;50.960;13.880;2023-07-02T05:48:25;19.20;99.90
26745;DHT22;14342;50.960;13.880;2023-07-02T05:49:27;18.90;99.90
26745;DHT22;14342;50.960;13.880;2023-07-02T05:50:27;19.00;99.90
26745;DHT22;14342;50.960;13.880;2023-07-02T05:51:29;18.90;99.90
26745;DHT22;14342;50.960;13.880;2023-07-02T05:52:30;18.90;99.90
26745;DHT22;14342;50.960;13.880;2023-07-02T05:53:31;18.80;99.90
26745;DHT22;14342;50.960;13.880;2023-07-02T05:54:32;18.90;99.90
26745;DHT22;14342;50.960;13.880;2023-07-02T05:55:35;19.10;99.90
26745;DHT22;14342;50.960;13.880;2023-07-02T05:56:35;19.20;99.90
26745;DHT22;14342;50.960;13.880;2023-07-02T05:57:37;19.30;99.90
26745;DHT22;14342;50.960;13.880;2023-07-02T05:58:37;19.30;99.90
26745;DHT22;14342;50.960;13.880;2023-07-02T05:59:39;19.40;99.90
26745;DHT22;14342;50.960;13.880;2023-07-02T06:00:39;19.40;99.90
26745;DHT22;14342;50.960;13.880;2023-07-02T06:01:42;19.40;99.90
26745;DHT22;14342;50.960;13.880;2023-07-02T06:02:42;19.40;99.90
26745;DHT22;14342;50.960;13.880;2023-07-02T06:03:44;19.50;99.90
26745;DHT22;14342;50.960;13.880;2023-07-02T06:04:45;19.40;99.90
26745;DHT22;14342;50.960;13.880;2023-07-02T06:05:47;19.40;99.90
26745;DHT22;14342;50.960;13.880;2023-07-02T06:06:48;19.40;99.90
26745;DHT22;14342;50.960;13.880;2023-07-02T06:07:49;19.50;99.90
26745;DHT22;14342;50.960;13.880;2023-07-02T06:08:50;19.40;99.90
26745;DHT22;14342;50.960;13.880;2023-07-02T06:09:51;19.40;99.90
26745;DHT22;14342;50.960;13.880;2023-07-02T06:10:53;19.50;99.90
26745;DHT22;14342;50.960;13.880;2023-07-02T06:11:55;19.50;99.90
26745;DHT22;14342;50.960;13.880;2023-07-02T06:12:55;19.60;99.90
26745;DHT22;14342;50.960;13.880;2023-07-02T06:13:57;19.60;99.90
26745;DHT22;14342;50.960;13.880;2023-07-02T06:14:57;19.70;99.90
26745;DHT22;14342;50.960;13.880;2023-07-02T06:15:59;19.70;99.90
26745;DHT22;14342;50.960;13.880;2023-07-02T06:16:59;19.80;99.90
26745;DHT22;14342;50.960;13.880;2023-07-02T06:18:03;19.70;99.90
26745;DHT22;14342;50.960;13.880;2023-07-02T06:19:04;19.70;99.90
26745;DHT22;14342;50.960;13.880;2023-07-02T06:20:06;19.80;99.90
26745;DHT22;14342;50.960;13.880;2023-07-02T06:21:07;19.80;99.90